Главная страница
METAR-TAF:

METAR-TAF

Аэропорты :

Маджуро, Маршалловы Острова

широта: 07-04N, долгота: 171-17E, высота над уровнем моря: 2 м

Текущие метеонаблюдения

Эта сводка был подготовлена 6 часа и 47 минут назад, в 08:55 UTC
Ветер 13 Узел от восточно-северо-восточный
Температура 29°C
Влажность 79%
Давление 1012 hPa
Видимость: 22.5 км
небольшая облачность на высоте 1500 фута
Отдельные облака на высоте 12000 фута
Сплошная облачность на высоте 30000 фута

METAR: PKMJ 180855Z 06013KT 14SM FEW015 SCT120 OVC300 29/25 A2988 RMK LAST

Время: 03:42 (15:42 UTC)

Прогноз

Эта сводка был подготовлена 4 часа и 16 минут назад, в 11:26 UTC
Прогноз действительный с 18-го 12 UTC до 19-го 12 UTC
Ветер 11 Узел от восточный
Видимость: 10 км
небольшая облачность на высоте 1600 фута
Отдельные облака на высоте 5000 фута
ливни в окрестностях

TAF: PKMJ 181126Z 1812/1912 09011KT P6SM VCSH FEW016 SCT050

Метеонаблюдения и прогнозы для более 4000 аэропортов (сводки METAR и TAF).

Имеющиеся станции представлены на карте желтыми и красными точками.

Чтобы увидеть название станции, наведите на нее мышь.

Затем щелкните, чтобы увидеть метеонаблюдения и метеопрогнозы.

Управление картой: чтобы увеличить масштаб, щелкните зеленые кнопки с черным крестиком; чтобы уменьшить масштаб, щелкните зеленую кнопку с тире; для просмотра соседних карт щелкайте зеленые стрелки.


METAR-TAF: